Time;durP1;ratioP1;P1;durP2;ratioP2;P2;SDS_P1;SDS_P2;PMS_P1;PMS_P2;Temp;Humidity;BMP_temperature;BMP_pressure;BME280_temperature;BME280_humidity;BME280_pressure;Samples;Min_cycle;Max_cycle;Signal;HPM_P1;HPM_P2
2022/11/14 00:01:11;;;;;;;2.47;1.55;;;;;;;0.09;85.70;102474.84;10602239;28;20048;-75
2022/11/14 00:06:32;;;;;;;3.08;1.40;;;;;;;0.08;86.09;102483.97;10599055;28;20045;-75
2022/11/14 00:11:53;;;;;;;3.85;1.73;;;;;;;0.11;86.09;102489.00;10576908;28;20048;-75
2022/11/14 00:17:18;;;;;;;2.70;1.58;;;;;;;0.09;86.67;102485.66;10601538;28;20078;-75
2022/11/14 00:22:45;;;;;;;1.98;1.10;;;;;;;0.12;86.58;102479.06;10618910;27;20035;-75
2022/11/14 00:28:06;;;;;;;3.30;1.60;;;;;;;0.13;86.40;102481.59;10598046;28;20172;-75
2022/11/14 00:33:27;;;;;;;3.28;1.20;;;;;;;0.17;86.80;102474.84;10616800;28;20046;-75
2022/11/14 00:38:51;;;;;;;2.15;0.95;;;;;;;0.19;86.79;102467.44;10621833;27;20039;-75
2022/11/14 00:44:12;;;;;;;1.58;0.88;;;;;;;0.21;86.04;102468.13;10626876;27;20035;-75
2022/11/14 00:49:37;;;;;;;1.20;0.80;;;;;;;0.22;85.77;102463.56;10597608;28;20062;-75
2022/11/14 00:54:58;;;;;;;2.47;0.98;;;;;;;0.25;86.33;102468.63;10595191;28;20536;-75
2022/11/14 01:00:25;;;;;;;1.80;1.00;;;;;;;0.25;86.27;102472.16;10614772;28;20043;-74
2022/11/14 01:05:47;;;;;;;0.85;0.80;;;;;;;0.27;85.99;102472.84;10587116;28;20433;-74
2022/11/14 01:11:11;;;;;;;1.20;0.70;;;;;;;0.36;85.83;102473.69;10604377;28;20406;-75
2022/11/14 01:16:32;;;;;;;3.63;1.15;;;;;;;0.42;86.09;102474.88;10602452;28;20418;-75
2022/11/14 01:21:52;;;;;;;1.42;1.05;;;;;;;0.39;86.07;102478.75;10583486;28;20043;-75
2022/11/14 01:27:13;;;;;;;1.98;1.00;;;;;;;0.39;85.17;102470.66;10583575;28;20051;-75
2022/11/14 01:32:38;;;;;;;2.22;1.20;;;;;;;0.38;85.60;102474.38;10597143;28;20042;-74
2022/11/14 01:37:58;;;;;;;2.63;1.08;;;;;;;0.37;85.58;102469.13;10593406;28;20043;-75
2022/11/14 01:43:33;;;;;;;4.30;1.27;;;;;;;0.38;85.77;102465.41;10602509;27;20488;-74
2022/11/14 01:49:01;;;;;;;1.67;1.23;;;;;;;0.41;85.66;102462.38;10621884;27;20060;-74
2022/11/14 01:54:25;;;;;;;3.05;1.20;;;;;;;0.41;85.45;102454.28;10593196;28;20410;-75
2022/11/14 01:59:49;;;;;;;1.88;1.10;;;;;;;0.44;85.50;102456.63;10612816;28;20047;-74
2022/11/14 02:05:12;;;;;;;1.75;1.60;;;;;;;0.42;85.05;102447.84;10647630;27;20039;-74
2022/11/14 02:10:33;;;;;;;2.33;1.30;;;;;;;0.45;84.76;102453.75;10623335;27;20067;-74
2022/11/14 02:15:57;;;;;;;2.25;1.45;;;;;;;0.42;85.14;102461.34;10612571;28;20498;-75
2022/11/14 02:21:18;;;;;;;2.67;1.55;;;;;;;0.39;84.75;102459.00;10596077;27;20079;-75
2022/11/14 02:26:43;;;;;;;2.85;1.65;;;;;;;0.38;84.70;102458.16;10624474;27;20051;-75
2022/11/14 02:32:07;;;;;;;2.97;1.70;;;;;;;0.38;84.81;102465.41;10612048;28;20146;-75
2022/11/14 02:37:35;;;;;;;1.80;1.30;;;;;;;0.35;84.73;102466.59;10612825;27;20043;-76
2022/11/14 02:43:00;;;;;;;2.30;1.58;;;;;;;0.27;85.43;102466.59;10611702;28;20055;-75
2022/11/14 02:48:24;;;;;;;3.42;1.35;;;;;;;0.16;85.72;102470.44;10602318;28;20035;-75
2022/11/14 02:53:45;;;;;;;3.17;1.90;;;;;;;0.11;85.73;102462.03;10609940;28;20489;-75
2022/11/14 02:59:13;;;;;;;5.68;2.33;;;;;;;0.07;86.05;102449.88;10610431;28;20036;-74
2022/11/14 03:04:34;;;;;;;4.70;2.30;;;;;;;0.09;86.45;102458.66;10598595;28;20035;-75
2022/11/14 03:09:56;;;;;;;2.55;2.13;;;;;;;0.09;86.18;102445.16;10587831;28;20035;-74
2022/11/14 03:15:46;;;;;;;2.83;1.60;;;;;;;0.12;86.97;102436.72;10592226;28;20070;-75
2022/11/14 03:21:07;;;;;;;1.88;1.40;;;;;;;-0.04;86.39;102437.56;10617270;28;20489;-75
2022/11/14 03:26:28;;;;;;;3.42;2.00;;;;;;;-0.09;86.91;102433.69;10617118;27;20047;-74
2022/11/14 03:31:49;;;;;;;5.40;1.50;;;;;;;-0.19;87.17;102423.03;10619591;28;20066;-75
2022/11/14 03:37:09;;;;;;;4.70;1.80;;;;;;;-0.27;87.21;102420.34;10591015;28;20493;-75
2022/11/14 03:42:35;;;;;;;3.03;1.65;;;;;;;-0.30;87.97;102415.28;10586655;28;20039;-75
2022/11/14 03:47:56;;;;;;;4.90;2.00;;;;;;;-0.36;88.56;102414.06;10616412;27;20040;-76
2022/11/14 03:53:16;;;;;;;4.03;1.90;;;;;;;-0.40;88.58;102420.81;10605869;28;20031;-75
2022/11/14 03:58:41;;;;;;;6.07;2.45;;;;;;;-0.43;88.54;102420.31;10616925;27;20528;-75
2022/11/14 04:04:06;;;;;;;4.90;2.60;;;;;;;-0.45;89.05;102422.31;10619161;27;20169;-75
2022/11/14 04:09:27;;;;;;;4.47;2.85;;;;;;;-0.49;89.23;102418.28;10602791;27;20042;-74
2022/11/14 04:14:51;;;;;;;5.88;2.58;;;;;;;-0.54;89.35;102413.34;10589527;28;20726;-75
2022/11/14 04:20:13;;;;;;;4.13;2.30;;;;;;;-0.56;89.16;102415.38;10610949;28;20040;-76
2022/11/14 04:25:33;;;;;;;3.78;1.98;;;;;;;-0.55;89.08;102408.97;10616944;28;20048;-75
2022/11/14 04:30:54;;;;;;;3.97;2.45;;;;;;;-0.48;89.36;102415.41;10604964;27;20039;-75
2022/11/14 04:36:14;;;;;;;4.68;2.65;;;;;;;-0.47;89.62;102419.78;10604218;27;20052;-75
2022/11/14 04:41:36;;;;;;;4.20;2.30;;;;;;;-0.46;89.41;102413.38;10589341;27;20032;-75
2022/11/14 04:46:57;;;;;;;4.63;2.88;;;;;;;-0.42;88.90;102413.91;10618589;27;20046;-75
2022/11/14 04:52:22;;;;;;;5.65;2.90;;;;;;;-0.43;89.11;102412.22;10650647;27;20054;-75
2022/11/14 04:57:43;;;;;;;10.13;3.53;;;;;;;-0.45;89.46;102420.47;10658045;27;20062;-75
2022/11/14 05:03:03;;;;;;;6.50;2.60;;;;;;;-0.46;89.33;102413.38;10612485;27;20039;-75
2022/11/14 05:08:24;;;;;;;8.13;3.40;;;;;;;-0.66;89.45;102414.69;10594243;28;20035;-75
2022/11/14 05:13:45;;;;;;;5.82;2.92;;;;;;;-0.85;89.57;102423.88;10605193;27;20031;-75
2022/11/14 05:19:06;;;;;;;8.60;3.47;;;;;;;-0.96;89.67;102419.63;10566082;28;20052;-75
2022/11/14 05:24:27;;;;;;;8.20;3.72;;;;;;;-1.06;90.38;102416.19;10583856;28;20028;-75
2022/11/14 05:29:48;;;;;;;7.80;4.10;;;;;;;-0.94;91.06;102419.47;10583813;28;20453;-75
2022/11/14 05:35:08;;;;;;;13.10;4.97;;;;;;;-0.86;91.44;102422.19;10571977;28;20051;-75
2022/11/14 05:40:29;;;;;;;15.18;5.82;;;;;;;-0.84;91.53;102424.72;10609129;28;20078;-75
2022/11/14 05:45:50;;;;;;;12.98;5.80;;;;;;;-0.85;91.88;102421.19;10571542;28;20040;-75
2022/11/14 05:51:12;;;;;;;13.43;5.18;;;;;;;-0.86;91.91;102429.44;10572129;28;20040;-75
2022/11/14 05:56:32;;;;;;;10.30;4.70;;;;;;;-0.88;91.75;102434.13;10618352;27;20035;-75
2022/11/14 06:01:53;;;;;;;8.27;3.58;;;;;;;-0.92;91.46;102433.59;10613625;28;20070;-74
2022/11/14 06:07:14;;;;;;;11.70;3.08;;;;;;;-0.89;91.31;102441.38;10581451;28;20032;-74
2022/11/14 06:12:34;;;;;;;8.13;3.15;;;;;;;-0.95;91.25;102432.09;10596294;28;20051;-74
2022/11/14 06:17:56;;;;;;;4.93;2.90;;;;;;;-1.00;91.01;102429.03;10612092;28;20043;-75
2022/11/14 06:23:17;;;;;;;12.77;3.10;;;;;;;-1.00;90.73;102429.03;10612352;28;20039;-75
2022/11/14 06:28:38;;;;;;;6.60;2.63;;;;;;;-0.99;90.92;102430.72;10593341;28;20552;-75
2022/11/14 06:33:59;;;;;;;4.78;2.63;;;;;;;-0.99;91.04;102424.50;10569858;28;20032;-75
2022/11/14 06:39:19;;;;;;;5.35;2.45;;;;;;;-0.94;91.10;102431.06;10570112;28;20529;-75
2022/11/14 06:44:40;;;;;;;4.72;2.63;;;;;;;-0.92;90.77;102426.38;10569212;28;20048;-75
2022/11/14 06:50:01;;;;;;;5.68;3.20;;;;;;;-0.86;91.02;102424.91;10577980;28;20043;-75
2022/11/14 06:55:22;;;;;;;6.85;2.78;;;;;;;-0.89;90.78;102419.81;10610514;28;20051;-74
2022/11/14 07:00:42;;;;;;;5.60;2.58;;;;;;;-0.92;90.69;102420.13;10608943;28;20042;-75
2022/11/14 07:06:04;;;;;;;5.15;2.75;;;;;;;-0.71;91.06;102425.94;10569022;28;20058;-75
2022/11/14 07:11:28;;;;;;;5.90;2.72;;;;;;;0.18;89.79;102425.25;10616024;28;20433;-75
2022/11/14 07:16:49;;;;;;;4.75;2.72;;;;;;;0.59;88.53;102427.91;10570485;28;20445;-75
2022/11/14 07:22:09;;;;;;;6.65;2.92;;;;;;;1.20;86.24;102431.78;10570467;28;20043;-75
2022/11/14 07:27:30;;;;;;;7.47;3.40;;;;;;;1.76;84.22;102437.94;10571486;28;20050;-75
2022/11/14 07:32:57;;;;;;;7.65;3.35;;;;;;;2.29;80.56;102426.19;10568595;28;20047;-75
2022/11/14 07:38:17;;;;;;;7.83;4.10;;;;;;;2.63;78.84;102436.53;10569136;28;20040;-75
2022/11/14 07:43:38;;;;;;;4.82;3.15;;;;;;;2.76;77.48;102440.44;10594038;28;20040;-75
2022/11/14 07:48:59;;;;;;;7.25;3.00;;;;;;;3.06;76.60;102438.59;10610233;28;20054;-75
2022/11/14 07:54:20;;;;;;;7.30;3.42;;;;;;;3.46;75.03;102432.66;10588710;28;20327;-75
2022/11/14 07:59:40;;;;;;;11.93;4.63;;;;;;;3.77;74.37;102431.56;10587017;28;20046;-75
2022/11/14 08:05:02;;;;;;;13.60;4.50;;;;;;;3.92;72.69;102421.47;10603116;28;20046;-75
2022/11/14 08:10:23;;;;;;;13.52;5.35;;;;;;;3.90;72.98;102418.97;10601599;28;20040;-75
2022/11/14 08:15:43;;;;;;;9.32;4.43;;;;;;;3.51;73.11;102421.25;10574696;28;20051;-75
2022/11/14 08:21:04;;;;;;;12.50;4.43;;;;;;;3.12;74.88;102433.25;10574994;28;20028;-76
2022/11/14 08:26:25;;;;;;;8.27;4.18;;;;;;;2.57;76.86;102436.41;10577776;28;20059;-75
2022/11/14 08:31:46;;;;;;;11.27;4.20;;;;;;;2.18;78.69;102433.88;10574717;28;20438;-75
2022/11/14 08:37:06;;;;;;;9.73;4.80;;;;;;;2.00;79.21;102434.19;10574560;28;20414;-75
2022/11/14 08:42:27;;;;;;;9.27;4.43;;;;;;;1.69;80.41;102434.22;10573593;28;20047;-74
2022/11/14 08:47:52;;;;;;;7.13;4.03;;;;;;;1.60;81.54;102433.44;10573668;28;20040;-75
2022/11/14 08:53:12;;;;;;;17.20;4.97;;;;;;;1.60;82.18;102419.94;10558427;28;20044;-75
2022/11/14 08:58:33;;;;;;;10.45;4.57;;;;;;;1.68;82.21;102429.84;10578127;28;20067;-75
2022/11/14 09:03:54;;;;;;;7.97;3.95;;;;;;;1.72;81.87;102425.75;10583246;28;20051;-76
2022/11/14 09:09:14;;;;;;;7.68;3.72;;;;;;;1.66;81.44;102419.19;10618214;27;20039;-75
2022/11/14 09:14:35;;;;;;;6.80;3.83;;;;;;;1.55;81.32;102410.63;10572651;28;20441;-75
2022/11/14 09:19:57;;;;;;;8.50;3.17;;;;;;;1.62;81.74;102398.94;10574080;28;20043;-78
2022/11/14 09:25:20;;;;;;;8.15;2.30;;;;;;;1.83;81.51;102383.91;10573378;28;20047;-75
2022/11/14 09:30:41;;;;;;;4.38;2.78;;;;;;;1.71;80.35;102388.88;10595391;28;20047;-75
2022/11/14 09:36:07;;;;;;;3.40;2.15;;;;;;;1.65;80.95;102386.91;10620179;27;20513;-78
2022/11/14 09:41:55;;;;;;;4.80;2.45;;;;;;;1.66;80.17;102375.91;10614441;28;20043;-77
2022/11/14 09:47:22;;;;;;;4.15;2.30;;;;;;;1.59;80.18;102363.28;10613492;28;20047;-78
2022/11/14 09:52:46;;;;;;;3.63;1.85;;;;;;;1.89;79.78;102367.78;10565648;28;20528;-78
2022/11/14 09:58:12;;;;;;;3.53;1.83;;;;;;;2.05;79.50;102354.09;10584587;28;20051;-78
2022/11/14 10:03:48;;;;;;;2.22;1.45;;;;;;;2.20;78.41;102347.88;10585550;28;20514;-78
2022/11/14 10:09:28;;;;;;;3.03;1.67;;;;;;;2.21;78.00;102344.13;10594439;28;20066;-78
2022/11/14 10:15:07;;;;;;;1.55;1.45;;;;;;;2.30;77.37;102329.50;10604289;28;20043;-78
2022/11/14 10:21:13;;;;;;;3.35;1.88;;;;;;;2.20;77.44;102326.22;10575193;28;20056;-77
2022/11/14 10:26:37;;;;;;;3.75;2.30;;;;;;;2.22;77.71;102313.31;10586366;27;20051;-75
2022/11/14 10:32:09;;;;;;;4.15;1.88;;;;;;;2.33;78.61;102311.00;10613121;27;20063;-78
2022/11/14 10:38:09;;;;;;;3.58;1.75;;;;;;;2.53;78.39;102305.03;10592340;28;20059;-73
2022/11/14 10:43:40;;;;;;;3.42;1.73;;;;;;;2.56;77.49;102299.22;10593515;28;20052;-74
2022/11/14 10:49:00;;;;;;;4.00;2.00;;;;;;;2.56;77.85;102299.22;10551767;28;20036;-76
2022/11/14 10:54:25;;;;;;;4.63;1.85;;;;;;;2.66;78.18;102295.22;10565544;28;20032;-76
2022/11/14 10:59:47;;;;;;;2.47;1.90;;;;;;;2.71;77.67;102290.06;10554123;28;20043;-75
2022/11/14 11:05:15;;;;;;;3.28;1.63;;;;;;;2.67;77.56;102293.34;10603230;28;20043;-74
2022/11/14 11:16:34;;;;;;;;;;;;;;;2.77;78.04;102276.78;10588744;28;20047;-75
2022/11/14 11:21:55;;;;;;;2.70;1.92;;;;;;;2.75;78.33;102265.28;10594630;28;19919;-76
2022/11/14 11:27:24;;;;;;;2.85;1.90;;;;;;;2.82;78.85;102268.94;10601623;27;20035;-74
2022/11/14 11:32:46;;;;;;;4.63;2.45;;;;;;;2.81;78.25;102253.69;10590968;27;20036;-75
2022/11/14 11:38:07;;;;;;;5.03;1.90;;;;;;;2.81;79.19;102251.00;10621844;28;20047;-74
2022/11/14 11:44:03;;;;;;;6.45;2.13;;;;;;;2.81;78.84;102243.69;10590417;28;20051;-76
2022/11/14 11:49:34;;;;;;;2.75;1.90;;;;;;;2.89;78.77;102242.72;10599647;28;20040;-74
2022/11/14 11:55:07;;;;;;;2.28;1.70;;;;;;;2.93;78.83;102233.19;10617843;28;20031;-73
2022/11/14 12:00:28;;;;;;;3.78;2.03;;;;;;;2.93;79.52;102236.72;10617951;28;20054;-73
2022/11/14 12:05:56;;;;;;;3.63;1.80;;;;;;;2.97;79.54;102226.34;10630892;27;20074;-76
2022/11/14 12:11:25;;;;;;;3.83;1.98;;;;;;;2.97;80.06;102229.06;10581239;28;20048;-75
2022/11/14 12:17:25;;;;;;;3.10;1.95;;;;;;;2.94;79.38;102226.72;10611640;28;20048;-73
2022/11/14 12:23:12;;;;;;;2.28;1.40;;;;;;;2.82;79.81;102218.28;10595504;28;20062;-75
2022/11/14 12:29:03;;;;;;;2.92;1.67;;;;;;;2.83;80.35;102219.09;10572217;28;20418;-76
2022/11/14 12:34:31;;;;;;;2.90;2.00;;;;;;;2.86;80.32;102213.28;10595056;27;20051;-77
2022/11/14 12:40:03;;;;;;;;;;;;;;;2.89;80.49;102224.59;10614923;28;20045;-76
2022/11/14 12:45:39;;;;;;;3.38;1.50;;;;;;;2.83;80.60;102208.25;10602908;27;19924;-75
2022/11/14 12:51:00;;;;;;;3.78;1.92;;;;;;;2.89;80.33;102213.75;10618539;28;20066;-78
2022/11/14 12:56:21;;;;;;;2.40;1.27;;;;;;;2.90;80.24;102203.75;10607575;28;20545;-77
2022/11/14 13:01:51;;;;;;;2.60;1.73;;;;;;;2.85;80.75;102200.78;10600701;27;20326;-73
2022/11/14 13:07:40;;;;;;;3.70;1.90;;;;;;;2.78;80.39;102184.44;10608169;27;20498;-75
2022/11/14 13:24:59;;;;;;;3.72;1.92;;;;;;;2.64;81.34;102178.03;10595286;28;20473;-74
2022/11/14 13:30:58;;;;;;;3.50;1.77;;;;;;;2.55;81.48;102168.31;10603116;27;20047;-74
2022/11/14 13:36:26;;;;;;;3.08;1.88;;;;;;;2.58;82.06;102162.53;10613755;27;20069;-76
2022/11/14 13:42:09;;;;;;;3.97;1.67;;;;;;;2.62;82.60;102154.88;10610946;27;20032;-75
2022/11/14 13:48:05;;;;;;;2.25;1.90;;;;;;;2.67;82.34;102155.97;10591532;28;20032;-74
2022/11/14 13:53:27;;;;;;;1.95;1.67;;;;;;;2.71;82.24;102159.97;10594593;28;20379;-75
2022/11/14 13:59:03;;;;;;;5.88;2.45;;;;;;;2.76;82.72;102142.28;10594094;28;20040;-75
2022/11/14 14:04:51;;;;;;;6.35;3.95;;;;;;;2.81;82.30;102139.84;10580309;27;20043;-75
2022/11/14 14:10:19;;;;;;;3.92;2.60;;;;;;;2.84;82.16;102128.63;10592981;27;20830;-77
2022/11/14 14:15:51;;;;;;;3.13;1.75;;;;;;;2.91;82.05;102133.06;10605543;27;20035;-78
2022/11/14 14:21:34;;;;;;;6.57;2.30;;;;;;;2.90;81.52;102123.25;10594823;28;20530;-78
2022/11/14 14:27:19;;;;;;;3.72;2.13;;;;;;;2.90;81.54;102116.97;10590848;27;20052;-78
2022/11/14 14:32:40;;;;;;;3.03;2.00;;;;;;;2.82;81.82;102104.41;10608653;27;20058;-75
2022/11/14 14:38:01;;;;;;;5.40;2.22;;;;;;;2.83;81.87;102088.97;10591817;27;20052;-76
2022/11/14 14:43:34;;;;;;;4.40;2.00;;;;;;;2.83;82.29;102083.56;10610592;27;20142;-76
2022/11/14 14:48:55;;;;;;;5.90;2.10;;;;;;;2.84;82.69;102072.53;10614060;27;20059;-75
2022/11/14 14:54:25;;;;;;;5.28;1.98;;;;;;;3.20;83.96;102076.97;10609459;28;20046;-75
2022/11/14 15:00:00;;;;;;;6.13;1.98;;;;;;;3.16;82.89;102057.56;10615480;27;20066;-76
2022/11/14 15:05:25;;;;;;;3.35;1.98;;;;;;;3.03;82.10;102054.75;10581417;28;20508;-77
2022/11/14 15:10:46;;;;;;;2.75;2.10;;;;;;;3.01;82.11;102054.94;10595667;28;20031;-77
2022/11/14 15:16:07;;;;;;;2.95;1.98;;;;;;;3.00;82.49;102052.44;10622921;28;20046;-76
2022/11/14 15:21:29;;;;;;;8.55;2.33;;;;;;;2.97;82.48;102050.13;10613043;28;20066;-76
2022/11/14 15:26:50;;;;;;;3.92;3.00;;;;;;;2.93;82.05;102038.78;10571561;28;20060;-77
2022/11/14 15:32:19;;;;;;;4.35;2.10;;;;;;;2.95;82.14;102042.19;10601236;28;20036;-76
2022/11/14 15:38:18;;;;;;;4.65;2.17;;;;;;;2.94;82.65;102021.50;10620670;28;20047;-75
2022/11/14 15:43:41;;;;;;;2.60;1.90;;;;;;;2.95;82.63;102028.63;10593481;28;20032;-74
2022/11/14 15:49:13;;;;;;;2.97;2.03;;;;;;;2.94;82.30;102021.50;10603775;28;20125;-76
2022/11/14 15:54:36;;;;;;;4.18;2.03;;;;;;;2.91;82.92;102011.03;10582246;28;20402;-77
2022/11/14 15:59:58;;;;;;;3.88;2.10;;;;;;;2.92;82.29;102009.16;10585397;28;20584;-78
2022/11/14 16:05:28;;;;;;;4.70;2.17;;;;;;;2.94;82.46;102001.69;10582162;28;20444;-77
2022/11/14 16:10:48;;;;;;;5.50;2.25;;;;;;;2.95;82.24;101995.22;10611641;28;20051;-77
2022/11/14 16:16:09;;;;;;;5.55;2.90;;;;;;;2.86;82.62;101981.00;10576489;28;20040;-77
2022/11/14 16:21:30;;;;;;;4.68;2.75;;;;;;;2.73;82.58;101983.59;10614875;28;20406;-77
2022/11/14 16:26:50;;;;;;;8.05;3.28;;;;;;;2.70;83.11;101970.44;10613516;28;20043;-77
2022/11/14 16:32:12;;;;;;;5.95;3.17;;;;;;;2.67;83.34;101963.53;10585804;28;20043;-77
2022/11/14 16:37:32;;;;;;;6.22;3.38;;;;;;;2.64;84.07;101944.97;10597101;27;20066;-77
2022/11/14 16:42:54;;;;;;;6.93;3.40;;;;;;;2.62;83.97;101960.59;10592474;27;20036;-77
2022/11/14 16:48:14;;;;;;;7.72;3.70;;;;;;;2.59;84.32;101935.75;10580554;28;20039;-77
2022/11/14 16:53:35;;;;;;;8.48;4.22;;;;;;;2.62;84.30;101927.25;10589252;28;20059;-79
2022/11/14 16:58:56;;;;;;;8.05;4.03;;;;;;;2.56;84.86;101922.59;10573268;28;20567;-78
2022/11/14 17:04:17;;;;;;;8.00;4.05;;;;;;;2.49;84.78;101908.16;10595984;27;20071;-77
2022/11/14 17:09:38;;;;;;;6.25;4.18;;;;;;;2.42;85.15;101902.69;10607973;27;20054;-77
2022/11/14 17:14:59;;;;;;;7.25;3.85;;;;;;;2.40;84.68;101899.34;10588537;28;20528;-78
2022/11/14 17:20:20;;;;;;;8.57;3.92;;;;;;;2.38;85.48;101882.44;10596244;28;20054;-78
2022/11/14 17:25:40;;;;;;;7.45;4.15;;;;;;;2.38;85.36;101877.03;10596722;28;20043;-79
2022/11/14 17:31:10;;;;;;;6.72;4.18;;;;;;;2.39;85.63;101876.81;10609045;28;20050;-79
2022/11/14 17:36:31;;;;;;;12.52;4.20;;;;;;;2.44;86.05;101875.41;10589006;28;20047;-77
2022/11/14 17:41:52;;;;;;;8.45;4.43;;;;;;;2.42;85.67;101865.59;10612381;27;20043;-78
2022/11/14 17:47:12;;;;;;;11.60;4.25;;;;;;;2.46;85.70;101860.63;10592332;28;20058;-78
2022/11/14 17:52:33;;;;;;;9.52;3.88;;;;;;;2.54;86.38;101856.91;10602155;28;20040;-77
2022/11/14 17:57:54;;;;;;;10.57;4.05;;;;;;;2.56;85.83;101852.97;10584539;28;20042;-75
2022/11/14 18:03:15;;;;;;;8.95;4.70;;;;;;;2.65;86.07;101843.66;10597388;28;20169;-75
2022/11/14 18:08:36;;;;;;;9.75;4.60;;;;;;;2.63;85.43;101821.34;10601632;28;20044;-74
2022/11/14 18:13:56;;;;;;;9.80;4.85;;;;;;;2.60;85.24;101823.59;10599998;28;20486;-74
2022/11/14 18:19:17;;;;;;;8.50;4.65;;;;;;;2.57;84.97;101824.00;10586180;28;20121;-74
2022/11/14 18:24:42;;;;;;;9.38;5.07;;;;;;;2.48;85.10;101828.75;10602114;28;20044;-74
2022/11/14 18:30:04;;;;;;;7.95;4.47;;;;;;;2.41;84.57;101825.16;10588417;27;20162;-74
2022/11/14 18:35:25;;;;;;;7.72;4.75;;;;;;;2.38;85.65;101809.31;10586450;28;20044;-73
2022/11/14 18:40:45;;;;;;;6.53;4.10;;;;;;;2.33;84.87;101811.78;10585292;28;20062;-74
2022/11/14 18:46:17;;;;;;;11.05;5.47;;;;;;;2.28;85.54;101798.00;10612215;28;20445;-73
2022/11/14 18:51:40;;;;;;;7.65;4.82;;;;;;;2.28;85.69;101800.72;10613200;27;20131;-74
2022/11/14 18:57:01;;;;;;;7.38;4.38;;;;;;;2.27;85.07;101782.78;10584889;28;20067;-73
2022/11/14 19:02:22;;;;;;;9.15;5.05;;;;;;;2.22;85.20;101780.66;10576060;28;20537;-75
2022/11/14 19:07:43;;;;;;;8.77;5.00;;;;;;;2.27;85.61;101771.97;10581623;28;20545;-74
2022/11/14 19:13:03;;;;;;;10.60;5.00;;;;;;;2.29;85.42;101762.59;10562688;28;20431;-74
2022/11/14 19:18:24;;;;;;;9.07;5.13;;;;;;;2.28;85.21;101741.13;10592135;28;20036;-74
2022/11/14 19:23:45;;;;;;;10.45;5.05;;;;;;;2.24;85.68;101743.38;10596227;28;20063;-74
2022/11/14 19:29:09;;;;;;;9.90;4.57;;;;;;;2.14;85.44;101728.53;10623439;28;20058;-73
2022/11/14 19:34:30;;;;;;;9.05;4.80;;;;;;;2.07;86.30;101720.34;10576159;28;20040;-74
2022/11/14 19:39:54;;;;;;;9.93;4.30;;;;;;;1.99;86.70;101721.38;10587556;28;20328;-74
2022/11/14 19:45:14;;;;;;;8.48;4.80;;;;;;;1.96;87.32;101712.81;10581906;28;20129;-74
2022/11/14 19:50:35;;;;;;;8.07;3.92;;;;;;;1.88;87.90;101708.38;10583413;28;22862;-74
2022/11/14 19:56:01;;;;;;;8.25;4.50;;;;;;;1.87;88.29;101706.69;10592911;28;20517;-74
2022/11/14 20:01:25;;;;;;;11.55;5.05;;;;;;;1.78;88.49;101697.91;10602039;28;20046;-73
2022/11/14 20:06:46;;;;;;;10.63;4.60;;;;;;;1.68;89.08;101692.00;10614074;28;20055;-76
2022/11/14 20:12:06;;;;;;;9.18;4.93;;;;;;;1.60;89.55;101680.50;10620588;27;20047;-76
2022/11/14 20:17:27;;;;;;;10.38;5.00;;;;;;;1.53;90.57;101683.13;10600983;28;20042;-75
2022/11/14 20:22:49;;;;;;;10.93;5.28;;;;;;;1.51;90.82;101664.41;10613363;28;20441;-76
2022/11/14 20:28:11;;;;;;;8.95;4.18;;;;;;;1.42;91.37;101662.88;10593432;27;20047;-76
2022/11/14 20:33:37;;;;;;;8.98;4.60;;;;;;;1.33;91.84;101653.22;10604821;27;20043;-75
2022/11/14 20:38:58;;;;;;;10.52;5.05;;;;;;;1.24;92.04;101646.31;10569332;28;20047;-76
2022/11/14 20:44:19;;;;;;;8.45;4.30;;;;;;;1.14;92.08;101637.69;10607828;27;20038;-74
2022/11/14 20:49:41;;;;;;;10.50;4.80;;;;;;;1.16;92.91;101635.63;10610362;28;20035;-74
2022/11/14 20:55:02;;;;;;;8.80;4.57;;;;;;;1.15;93.52;101610.44;10596059;28;20066;-74
2022/11/14 21:00:23;;;;;;;8.80;4.88;;;;;;;1.11;93.77;101606.47;10589941;28;20036;-75
2022/11/14 21:05:43;;;;;;;8.68;4.75;;;;;;;1.10;93.93;101598.56;10609195;27;20058;-75
2022/11/14 21:11:07;;;;;;;7.85;4.30;;;;;;;1.13;94.66;101581.94;10611180;27;20143;-74
2022/11/14 21:16:32;;;;;;;9.25;4.72;;;;;;;1.13;94.71;101565.72;10606431;27;20042;-74
2022/11/14 21:21:54;;;;;;;9.55;4.43;;;;;;;1.12;94.99;101554.09;10591091;28;20036;-75
2022/11/14 21:27:14;;;;;;;7.75;4.97;;;;;;;1.10;95.29;101533.69;10613791;27;20510;-76
2022/11/14 21:32:35;;;;;;;7.15;4.20;;;;;;;1.15;95.01;101515.00;10611503;28;20055;-75
2022/11/14 21:37:55;;;;;;;7.95;4.07;;;;;;;1.22;95.66;101515.91;10610097;27;20050;-74
2022/11/14 21:43:16;;;;;;;5.57;3.17;;;;;;;1.18;95.90;101511.91;10608865;28;20047;-75
2022/11/14 21:48:39;;;;;;;5.38;3.20;;;;;;;1.21;96.09;101498.00;10601989;28;20050;-76
2022/11/14 21:54:03;;;;;;;6.80;3.25;;;;;;;1.20;95.67;101507.13;10612258;27;20048;-76
2022/11/14 21:59:26;;;;;;;5.63;3.38;;;;;;;1.23;96.17;101489.72;10610336;28;20070;-75
2022/11/14 22:04:47;;;;;;;3.97;2.70;;;;;;;1.27;96.24;101474.75;10607298;28;20051;-74
2022/11/14 22:10:08;;;;;;;4.85;3.03;;;;;;;1.22;96.53;101467.25;10607840;27;20035;-74
2022/11/14 22:15:29;;;;;;;5.10;2.80;;;;;;;1.22;96.70;101472.66;10604259;28;20417;-74
2022/11/14 22:20:53;;;;;;;4.43;3.00;;;;;;;1.23;96.91;101460.81;10590962;28;20031;-73
2022/11/14 22:26:13;;;;;;;5.18;3.33;;;;;;;1.22;96.94;101450.19;10609956;27;20541;-74
2022/11/14 22:31:36;;;;;;;4.82;2.80;;;;;;;1.28;97.48;101444.81;10579518;27;20028;-75
2022/11/14 22:36:56;;;;;;;3.42;2.70;;;;;;;1.18;97.23;101450.56;10612665;27;20541;-74
2022/11/14 22:42:17;;;;;;;5.35;2.83;;;;;;;1.27;97.50;101437.72;10605691;28;20054;-74
2022/11/14 22:47:38;;;;;;;5.10;3.00;;;;;;;1.24;97.25;101432.72;10600229;28;20042;-74
2022/11/14 22:52:58;;;;;;;4.25;2.92;;;;;;;1.24;97.28;101424.63;10589775;28;20422;-74
2022/11/14 22:58:19;;;;;;;3.65;2.80;;;;;;;1.24;97.79;101410.28;10607307;28;20051;-74
2022/11/14 23:03:40;;;;;;;3.70;3.00;;;;;;;1.23;97.66;101409.44;10605005;28;20043;-74
2022/11/14 23:09:01;;;;;;;6.20;3.40;;;;;;;1.23;97.67;101398.63;10585832;28;20050;-74
2022/11/14 23:14:22;;;;;;;4.82;3.00;;;;;;;1.33;98.01;101385.53;10611357;28;20048;-75
2022/11/14 23:19:43;;;;;;;6.93;3.47;;;;;;;1.31;97.95;101374.09;10594087;28;20056;-75
2022/11/14 23:25:04;;;;;;;4.18;2.92;;;;;;;1.19;97.76;101359.50;10604447;28;20047;-75
2022/11/14 23:30:26;;;;;;;3.33;3.00;;;;;;;1.14;97.77;101353.88;10612583;28;20047;-76
2022/11/14 23:35:46;;;;;;;4.55;3.22;;;;;;;1.12;97.56;101337.84;10624307;27;20043;-75
2022/11/14 23:41:15;;;;;;;4.88;2.92;;;;;;;1.11;97.46;101319.13;10592710;28;20039;-76
2022/11/14 23:46:35;;;;;;;5.37;3.20;;;;;;;1.14;97.76;101321.44;10602774;27;20074;-76
2022/11/14 23:51:56;;;;;;;4.50;3.22;;;;;;;1.11;98.15;101305.63;10596802;28;20053;-76
2022/11/14 23:57:16;;;;;;;3.85;2.80;;;;;;;1.22;97.95;101298.81;10603454;27;20623;-76
